Milan Linate, Italy

7:53 PM CEST on March 29, 2015 (GMT +0200)
Peschiera Borromeo - Bellaria (Mi) | | Change Station
CLOSE
Current Station
Personal Weather Station
Location: Peschiera Borromeo,
Elevation: 318 ft
Nearby Weather Stations

Elev 318 ft 45.42 °N, 9.31 °E | Updated 5 minutes ago

Partly Cloudy
Partly Cloudy
60.3 °F
Feels Like 60.3 °F
N
0.0
Wind Variable Wind from North
Gusts 0.0 mph

Today
High -- | Low -- °F
--% Chance of Precip.
Yesterday
High -- | Low -- °F
Precip. -- in
7:09 AM 7:46 PM
Waxing Gibbous, 73% visible
Pressure 29.80 in
Visibility 6.2 miles
Clouds Few 3000 ft
Dew Point 43 °F
Humidity 53%
Rainfall 0.00 in
Snow Depth Not available.
UV 0 out of 12
Pollen Not available.
Air Quality Not available.
Flu Activity Not available.
METAR LIML 291720Z 15004KT 120V180 9999 FEW030 15/04 Q1009 NOSIG

More Conditions Fewer Conditions

Pressure 29.80 in
Visibility 6.2 miles
Clouds Few 3000 ft
Dew Point 43 °F
Humidity 53%
Rainfall 0.00 in
Snow Depth Not available.
UV 0 out of 12
Pollen Not available.
Air Quality Not available.
Flu Activity Not available.
METAR LIML 291720Z 15004KT 120V180 9999 FEW030 15/04 Q1009 NOSIG

More Conditions Fewer Conditions

10-Day Weather Forecast

Almanac

Astronomy

Mar. 29, 2015 Rise Set
Actual Time
Civil Twilight
Nautical Twilight
Astronomical Twilight
Moon
Length of Visible Light
Length of Day
Tomorrow will be .
, % of the Moon is Illuminated

Today's Extremes

Country Highs Country Lows

Community

WunderPhotos

Upload Photos

1,809,307 photos uploaded!

WunderBlogs® & News

Nearby

Air Quality

  Air Quality AQ Index Pollutant
Not available.

Snow Depth

Station Depth Elevation

Earthquake Activity

City Distance Mag. Time & Date
Minimum magnitude displayed is 2.5.

Coastal Water Temperatures

Place Temperature

Stations

Nearby Weather Stations

Station Location Temp. Windchill Dew Point Humidity Wind Precip. Elev Updated Type